Time;durP1;ratioP1;P1;durP2;ratioP2;P2;SDS_P1;SDS_P2;PMS_P1;PMS_P2;Temp;Humidity;BMP_temperature;BMP_pressure;BME280_temperature;BME280_humidity;BME280_pressure;Samples;Min_cycle;Max_cycle;Signal;HPM_P1;HPM_P2
2021/10/03 00:00:56;;;;;;;11.48;1.35;;;15.80;99.90;;;;;;5005782;28;20072;-77
2021/10/03 00:03:24;;;;;;;3.50;1.58;;;15.90;99.90;;;;;;5005657;28;20023;-74
2021/10/03 00:05:52;;;;;;;2.65;1.40;;;15.80;99.90;;;;;;5006017;28;20440;-76
2021/10/03 00:08:19;;;;;;;2.88;1.90;;;15.90;99.90;;;;;;5006120;28;20390;-75
2021/10/03 00:10:45;;;;;;;3.85;1.73;;;16.00;99.90;;;;;;5005628;28;20130;-74
2021/10/03 00:13:10;;;;;;;4.72;1.17;;;15.90;99.90;;;;;;5006108;28;20150;-76
2021/10/03 00:15:39;;;;;;;3.53;1.63;;;16.00;99.90;;;;;;5005585;28;20053;-77
2021/10/03 00:18:07;;;;;;;3.20;1.45;;;16.00;99.90;;;;;;5005130;28;20026;-77
2021/10/03 00:20:33;;;;;;;4.80;1.90;;;16.10;99.90;;;;;;4988289;28;20030;-76
2021/10/03 00:22:59;;;;;;;2.22;1.50;;;16.10;99.90;;;;;;4987687;28;20041;-77
2021/10/03 00:25:26;;;;;;;2.38;1.50;;;16.10;99.90;;;;;;4988283;28;20390;-73
2021/10/03 00:27:53;;;;;;;3.00;1.90;;;16.20;99.90;;;;;;5006063;28;20061;-75
2021/10/03 00:30:21;;;;;;;2.80;1.65;;;16.20;99.90;;;;;;5005373;28;20042;-73
2021/10/03 00:32:48;;;;;;;4.88;1.90;;;16.20;99.90;;;;;;5006076;28;20042;-75
2021/10/03 00:35:14;;;;;;;3.65;1.90;;;16.10;99.90;;;;;;4988111;28;20441;-73
2021/10/03 00:37:40;;;;;;;3.83;1.65;;;16.30;99.90;;;;;;5005249;28;20041;-75
2021/10/03 00:40:07;;;;;;;4.05;2.22;;;16.30;99.90;;;;;;5005619;28;20053;-74
2021/10/03 00:42:33;;;;;;;8.68;2.17;;;16.30;99.90;;;;;;5004979;28;20033;-77
2021/10/03 00:44:59;;;;;;;4.20;2.15;;;16.20;99.90;;;;;;5004724;28;20026;-73
2021/10/03 00:47:25;;;;;;;3.45;1.67;;;16.30;99.90;;;;;;5004324;28;20050;-74
2021/10/03 00:49:50;;;;;;;2.92;1.77;;;16.30;99.90;;;;;;4987295;28;20029;-77
2021/10/03 00:52:16;;;;;;;2.95;1.48;;;16.40;99.90;;;;;;5005552;28;20787;-75
2021/10/03 00:54:41;;;;;;;7.53;2.13;;;16.40;99.90;;;;;;5005532;28;20065;-73
2021/10/03 00:57:07;;;;;;;2.50;1.48;;;16.40;99.90;;;;;;5004916;28;20053;-75
2021/10/03 00:59:34;;;;;;;3.25;1.80;;;16.50;99.90;;;;;;5005285;28;20109;-75
2021/10/03 01:02:00;;;;;;;4.15;2.15;;;16.50;99.90;;;;;;5005241;28;20034;-74
2021/10/03 01:04:26;;;;;;;2.55;1.27;;;16.70;99.90;;;;;;5004703;28;20033;-75
2021/10/03 01:06:52;;;;;;;3.45;1.77;;;16.60;99.90;;;;;;4987068;28;20034;-75
2021/10/03 01:09:20;;;;;;;6.25;1.67;;;16.70;99.90;;;;;;4987246;28;20077;-74
2021/10/03 01:11:46;;;;;;;4.70;1.70;;;16.70;99.90;;;;;;4986192;28;20804;-73
2021/10/03 01:14:12;;;;;;;5.30;1.60;;;16.80;99.90;;;;;;5004859;28;20122;-75
2021/10/03 01:16:39;;;;;;;2.72;1.63;;;16.90;99.90;;;;;;5004975;28;20038;-74
2021/10/03 01:19:04;;;;;;;4.32;1.92;;;17.00;99.90;;;;;;5004519;28;20034;-75
2021/10/03 01:21:30;;;;;;;2.53;1.40;;;17.00;99.90;;;;;;4987221;28;20026;-72
2021/10/03 01:23:57;;;;;;;3.20;1.73;;;17.10;99.90;;;;;;5004517;28;20114;-74
2021/10/03 01:26:23;;;;;;;3.70;1.35;;;17.10;99.90;;;;;;4987285;28;20026;-71
2021/10/03 01:28:53;;;;;;;2.17;1.35;;;17.20;99.90;;;;;;4987602;28;20022;-72
2021/10/03 01:31:23;;;;;;;4.78;1.60;;;17.20;99.90;;;;;;5004555;28;20034;-76
2021/10/03 01:33:49;;;;;;;5.22;1.73;;;17.20;99.90;;;;;;5004909;28;20138;-76
2021/10/03 01:36:15;;;;;;;3.10;1.52;;;17.30;99.90;;;;;;5004952;28;20494;-73
2021/10/03 01:38:41;;;;;;;4.90;1.23;;;17.40;99.90;;;;;;5004277;28;20114;-72
2021/10/03 01:41:07;;;;;;;3.72;1.63;;;17.40;99.90;;;;;;5004424;28;20086;-73
2021/10/03 01:43:33;;;;;;;5.43;1.65;;;17.50;99.90;;;;;;4987125;28;20026;-74
2021/10/03 01:45:59;;;;;;;1.98;1.15;;;17.40;99.90;;;;;;5003944;28;20054;-77
2021/10/03 01:48:25;;;;;;;4.90;2.20;;;17.40;99.90;;;;;;5003869;28;20034;-73
2021/10/03 01:51:05;;;;;;;2.67;1.70;;;17.50;99.90;;;;;;5004549;28;20042;-74
2021/10/03 01:53:42;;;;;;;3.22;1.48;;;17.60;99.90;;;;;;5003185;28;20034;-74
2021/10/03 01:56:10;;;;;;;1.83;1.00;;;17.60;99.90;;;;;;5004602;28;20030;-73
2021/10/03 01:58:39;;;;;;;3.65;1.45;;;17.60;99.90;;;;;;5001784;28;20372;-74
2021/10/03 02:01:22;;;;;;;4.07;1.52;;;17.70;99.90;;;;;;5004119;28;20027;-75
2021/10/03 02:03:48;;;;;;;2.78;1.52;;;17.70;99.90;;;;;;5003219;28;20451;-75
2021/10/03 02:06:14;;;;;;;1.58;1.08;;;17.80;99.90;;;;;;5003825;28;20026;-73
2021/10/03 02:08:40;;;;;;;4.50;1.85;;;17.80;99.90;;;;;;5004328;28;20038;-73
2021/10/03 02:11:12;;;;;;;2.60;1.55;;;17.80;99.90;;;;;;5003234;28;20046;-74
2021/10/03 02:13:38;;;;;;;2.72;1.27;;;17.80;99.90;;;;;;5004057;28;20053;-73
2021/10/03 02:16:04;;;;;;;2.72;1.40;;;17.90;99.90;;;;;;5004005;28;20038;-73
2021/10/03 02:18:37;;;;;;;3.95;1.48;;;17.90;99.90;;;;;;5004085;28;20057;-73
2021/10/03 02:21:04;;;;;;;1.67;1.00;;;17.90;99.90;;;;;;5003204;28;20061;-73
2021/10/03 02:23:34;;;;;;;2.38;1.30;;;17.90;99.90;;;;;;4989244;28;20112;-74
2021/10/03 02:26:00;;;;;;;2.42;0.95;;;17.90;99.90;;;;;;5007540;28;20034;-74
2021/10/03 02:28:27;;;;;;;2.63;1.25;;;17.90;99.90;;;;;;4990332;28;20027;-75
2021/10/03 02:30:56;;;;;;;2.15;1.42;;;17.90;99.90;;;;;;5007606;28;20044;-75
2021/10/03 02:33:22;;;;;;;3.15;1.48;;;17.90;99.90;;;;;;4989921;28;20117;-75
2021/10/03 02:35:48;;;;;;;2.58;1.42;;;17.90;99.90;;;;;;5007020;28;20509;-74
2021/10/03 02:38:17;;;;;;;3.95;1.48;;;17.90;99.90;;;;;;5007381;28;20034;-73
2021/10/03 02:40:46;;;;;;;2.60;1.20;;;18.00;99.90;;;;;;4989589;28;20038;-72
2021/10/03 02:43:13;;;;;;;2.85;1.38;;;17.90;99.90;;;;;;5007625;28;20018;-75
2021/10/03 02:45:46;;;;;;;2.45;1.58;;;17.90;99.90;;;;;;5007759;28;20446;-72
2021/10/03 02:48:12;;;;;;;2.67;1.00;;;17.90;99.90;;;;;;5007464;28;20557;-72
2021/10/03 02:50:38;;;;;;;2.25;1.30;;;17.90;99.90;;;;;;5007025;28;20041;-74
2021/10/03 02:53:09;;;;;;;3.22;1.38;;;17.80;99.90;;;;;;4989450;28;20054;-72
2021/10/03 02:55:36;;;;;;;2.83;1.17;;;17.80;99.90;;;;;;5006820;28;20023;-74
2021/10/03 02:58:03;;;;;;;4.72;1.50;;;17.80;99.90;;;;;;4989827;28;20125;-75
2021/10/03 03:00:29;;;;;;;2.55;1.48;;;17.80;99.90;;;;;;5007243;28;20060;-78
2021/10/03 03:02:54;;;;;;;7.55;1.40;;;17.70;99.90;;;;;;5007146;28;20026;-76
2021/10/03 03:05:20;;;;;;;3.15;1.55;;;17.80;99.90;;;;;;4989985;28;20050;-75
2021/10/03 03:07:46;;;;;;;1.73;0.80;;;17.70;99.90;;;;;;5006352;28;20098;-75
2021/10/03 03:10:11;;;;;;;2.38;1.00;;;17.80;99.90;;;;;;5006470;28;20038;-77
2021/10/03 03:12:38;;;;;;;7.53;1.55;;;17.80;99.90;;;;;;5007159;28;20039;-77
2021/10/03 03:15:08;;;;;;;2.13;1.20;;;17.80;99.90;;;;;;5006554;28;20027;-74
2021/10/03 03:17:34;;;;;;;1.90;1.38;;;17.80;99.90;;;;;;5006637;28;20033;-72
2021/10/03 03:20:00;;;;;;;1.85;1.27;;;17.70;99.90;;;;;;5002324;28;20030;-73
2021/10/03 03:22:26;;;;;;;4.25;1.48;;;17.80;99.90;;;;;;5000726;28;20090;-74
2021/10/03 03:24:52;;;;;;;2.85;1.23;;;17.80;99.90;;;;;;5001638;28;20041;-74
2021/10/03 03:27:18;;;;;;;3.88;1.00;;;17.80;99.90;;;;;;5006501;28;20054;-74
2021/10/03 03:29:44;;;;;;;2.92;1.40;;;17.80;99.90;;;;;;4988863;28;20030;-77
2021/10/03 03:32:09;;;;;;;4.30;1.40;;;17.80;99.90;;;;;;4988788;28;20101;-73
2021/10/03 03:34:35;;;;;;;1.90;1.02;;;17.80;99.90;;;;;;5005654;28;20062;-73
2021/10/03 03:37:01;;;;;;;2.50;1.30;;;17.80;99.90;;;;;;5004467;28;20061;-75
2021/10/03 03:39:27;;;;;;;1.83;1.15;;;17.80;99.90;;;;;;4986767;28;20094;-74
2021/10/03 03:41:53;;;;;;;2.17;1.20;;;17.90;99.90;;;;;;5006318;28;20030;-73
2021/10/03 03:44:18;;;;;;;3.38;1.45;;;17.80;99.90;;;;;;5006205;28;20031;-75
2021/10/03 03:46:44;;;;;;;2.97;1.23;;;17.80;99.90;;;;;;4985255;28;20480;-72
2021/10/03 03:49:09;;;;;;;5.18;1.40;;;17.80;99.90;;;;;;5004079;28;20569;-72
2021/10/03 03:51:35;;;;;;;3.03;1.45;;;17.80;99.90;;;;;;5005747;28;20042;-72
2021/10/03 03:54:01;;;;;;;2.28;1.13;;;17.80;99.90;;;;;;5006401;28;20029;-74
2021/10/03 03:56:26;;;;;;;3.15;0.90;;;17.90;99.90;;;;;;5006424;28;20097;-73
2021/10/03 03:58:52;;;;;;;3.28;1.35;;;17.90;99.90;;;;;;4986930;28;20031;-73
2021/10/03 04:01:18;;;;;;;3.13;1.30;;;17.90;99.90;;;;;;5004123;28;20093;-72
2021/10/03 04:03:43;;;;;;;1.90;1.17;;;17.90;99.90;;;;;;4986667;28;20486;-72
2021/10/03 04:06:09;;;;;;;1.60;1.00;;;17.90;99.90;;;;;;5004493;28;20034;-74
2021/10/03 04:08:35;;;;;;;2.15;1.15;;;17.80;99.90;;;;;;4987918;28;20038;-75
2021/10/03 04:11:00;;;;;;;1.60;1.17;;;17.90;99.90;;;;;;5005678;28;20069;-73
2021/10/03 04:13:26;;;;;;;3.60;1.48;;;17.90;99.90;;;;;;5005660;28;20034;-73
2021/10/03 04:15:52;;;;;;;2.92;1.60;;;17.90;99.90;;;;;;5006006;28;20030;-74
2021/10/03 04:18:18;;;;;;;2.58;1.35;;;17.90;99.90;;;;;;5004380;28;20062;-72
2021/10/03 04:20:44;;;;;;;2.13;1.15;;;17.90;99.90;;;;;;5005788;28;20030;-71
2021/10/03 04:23:09;;;;;;;3.05;1.27;;;18.00;99.90;;;;;;5004251;28;20037;-73
2021/10/03 04:25:35;;;;;;;3.60;1.63;;;17.90;99.90;;;;;;5005321;28;20041;-74
2021/10/03 04:28:01;;;;;;;1.70;1.00;;;17.90;99.90;;;;;;5005458;28;20033;-73
2021/10/03 04:30:27;;;;;;;2.17;1.20;;;18.00;99.90;;;;;;4988238;28;20086;-73
2021/10/03 04:32:54;;;;;;;2.22;1.10;;;17.90;99.90;;;;;;5005427;28;20023;-73
2021/10/03 04:35:20;;;;;;;2.95;1.10;;;18.00;99.90;;;;;;5005137;28;20030;-75
2021/10/03 04:37:45;;;;;;;2.47;1.10;;;17.90;99.90;;;;;;5004384;28;20026;-74
2021/10/03 04:40:11;;;;;;;1.63;1.13;;;18.00;99.90;;;;;;5004678;28;20038;-73
2021/10/03 04:42:37;;;;;;;1.95;1.10;;;18.00;99.90;;;;;;5005323;28;20066;-75
2021/10/03 04:45:03;;;;;;;2.10;0.90;;;18.00;99.90;;;;;;5004579;28;20445;-75
2021/10/03 04:47:29;;;;;;;2.33;1.05;;;18.00;99.90;;;;;;4987006;28;20104;-73
2021/10/03 04:49:56;;;;;;;9.60;1.10;;;18.00;99.90;;;;;;5003923;28;20022;-75
2021/10/03 04:52:25;;;;;;;5.50;1.05;;;18.00;99.90;;;;;;4985042;28;20034;-75
2021/10/03 04:54:52;;;;;;;1.88;0.98;;;18.00;99.90;;;;;;5005268;28;20034;-75
2021/10/03 04:57:18;;;;;;;2.72;1.20;;;18.10;99.90;;;;;;5004550;28;20038;-72
2021/10/03 04:59:44;;;;;;;3.85;1.15;;;18.00;99.90;;;;;;4996139;28;20026;-76
2021/10/03 05:02:10;;;;;;;2.75;1.17;;;18.10;99.90;;;;;;4983234;28;20115;-72
2021/10/03 05:04:35;;;;;;;2.13;1.15;;;18.10;99.90;;;;;;5001625;28;20034;-73
2021/10/03 05:07:02;;;;;;;2.33;1.00;;;18.10;99.90;;;;;;4993906;28;20023;-74
2021/10/03 05:09:28;;;;;;;4.18;1.38;;;18.20;99.90;;;;;;4984983;28;20037;-75
2021/10/03 05:11:53;;;;;;;3.08;1.50;;;18.20;99.90;;;;;;4985000;28;20039;-76
2021/10/03 05:14:20;;;;;;;5.90;1.00;;;18.20;99.90;;;;;;4967658;28;20099;-74
2021/10/03 05:16:46;;;;;;;2.05;0.95;;;18.20;99.90;;;;;;4985184;28;20030;-75
2021/10/03 05:19:12;;;;;;;3.55;1.17;;;18.10;99.90;;;;;;4985530;28;20035;-75
2021/10/03 05:21:38;;;;;;;5.47;1.67;;;18.10;99.90;;;;;;4984515;28;20027;-73
2021/10/03 05:24:04;;;;;;;1.83;1.02;;;18.10;99.90;;;;;;4985017;28;20026;-74
2021/10/03 05:26:30;;;;;;;1.98;0.80;;;18.10;99.90;;;;;;4984959;28;20026;-75
2021/10/03 05:28:56;;;;;;;1.90;0.98;;;18.00;99.90;;;;;;4980239;28;20085;-73
2021/10/03 05:31:25;;;;;;;2.17;0.80;;;18.00;99.90;;;;;;5004474;28;20034;-74
2021/10/03 05:33:51;;;;;;;3.10;1.20;;;18.00;99.90;;;;;;5003562;28;20386;-72
2021/10/03 05:36:17;;;;;;;2.25;1.10;;;18.00;99.90;;;;;;4998170;28;20070;-73
2021/10/03 05:38:43;;;;;;;2.40;1.10;;;18.00;99.90;;;;;;4986743;28;20482;-74
2021/10/03 05:41:10;;;;;;;2.25;1.35;;;18.00;99.90;;;;;;5004466;28;20117;-74
2021/10/03 05:43:37;;;;;;;1.42;0.90;;;18.00;99.90;;;;;;5019329;28;20023;-73
2021/10/03 05:46:09;;;;;;;2.75;1.10;;;18.00;99.90;;;;;;5003889;28;20046;-72
2021/10/03 05:48:35;;;;;;;2.10;1.52;;;18.10;99.90;;;;;;5003911;28;20060;-71
2021/10/03 05:51:01;;;;;;;5.97;1.50;;;18.10;99.90;;;;;;5004235;28;20486;-73
2021/10/03 05:53:27;;;;;;;5.05;1.17;;;18.10;99.90;;;;;;5004640;28;20022;-75
2021/10/03 05:55:54;;;;;;;2.92;1.73;;;18.10;99.90;;;;;;5003932;28;20041;-72
2021/10/03 05:58:29;;;;;;;2.00;1.40;;;18.20;99.90;;;;;;5007296;28;20033;-74
2021/10/03 06:00:55;;;;;;;1.73;1.15;;;18.20;99.90;;;;;;5008523;28;20026;-73
2021/10/03 06:03:23;;;;;;;1.25;0.98;;;18.20;99.90;;;;;;4990722;28;20462;-75
2021/10/03 06:05:48;;;;;;;3.97;1.35;;;18.20;99.90;;;;;;4996814;28;20031;-70
2021/10/03 06:08:17;;;;;;;3.08;1.30;;;18.20;99.90;;;;;;4995535;28;20037;-71
2021/10/03 06:10:44;;;;;;;3.97;1.27;;;18.20;99.90;;;;;;4991331;28;20050;-71
2021/10/03 06:13:10;;;;;;;2.35;1.05;;;18.20;99.90;;;;;;5002061;28;20030;-68
2021/10/03 06:15:35;;;;;;;2.28;1.10;;;18.10;99.90;;;;;;5006600;28;20058;-70
2021/10/03 06:18:02;;;;;;;3.03;1.00;;;18.10;99.90;;;;;;5001235;28;20035;-73
2021/10/03 06:20:28;;;;;;;2.40;1.27;;;18.00;99.90;;;;;;4997174;28;20027;-73
2021/10/03 06:22:54;;;;;;;3.40;1.20;;;18.10;99.90;;;;;;4993248;28;20027;-70
2021/10/03 06:25:21;;;;;;;3.38;1.42;;;18.10;99.90;;;;;;4999446;28;20037;-73
2021/10/03 06:27:47;;;;;;;2.42;1.05;;;18.20;99.90;;;;;;5006986;28;20030;-73
2021/10/03 06:30:13;;;;;;;4.30;1.45;;;18.20;99.90;;;;;;5001276;28;20049;-72
2021/10/03 06:32:38;;;;;;;5.18;1.75;;;18.20;99.90;;;;;;4987731;28;20034;-73
2021/10/03 06:35:05;;;;;;;2.75;1.05;;;18.20;99.90;;;;;;5005719;28;20030;-73
2021/10/03 06:37:31;;;;;;;9.73;1.60;;;18.30;99.90;;;;;;5004262;28;20038;-74
2021/10/03 06:39:58;;;;;;;3.08;1.33;;;18.30;99.90;;;;;;5007142;28;20041;-74
2021/10/03 06:42:23;;;;;;;5.65;1.50;;;18.40;99.90;;;;;;5007460;28;20069;-72
2021/10/03 06:44:50;;;;;;;3.80;1.48;;;18.40;99.90;;;;;;5004985;28;20038;-72
2021/10/03 06:47:16;;;;;;;1.98;1.30;;;18.50;99.90;;;;;;5007308;28;20514;-75
2021/10/03 06:49:44;;;;;;;7.32;1.73;;;18.50;99.90;;;;;;5006980;28;20030;-71
2021/10/03 06:52:11;;;;;;;1.90;1.08;;;18.60;99.90;;;;;;5007074;28;20046;-73
2021/10/03 06:54:36;;;;;;;2.53;1.30;;;18.70;99.90;;;;;;5007027;28;20120;-71
2021/10/03 06:57:02;;;;;;;4.22;1.88;;;18.70;99.90;;;;;;5005999;28;20030;-71
2021/10/03 06:59:31;;;;;;;2.15;1.25;;;18.70;99.90;;;;;;5006996;28;20093;-73
2021/10/03 07:01:58;;;;;;;3.55;1.83;;;18.80;99.90;;;;;;5006771;28;20065;-74
2021/10/03 07:04:24;;;;;;;16.23;1.70;;;18.80;99.90;;;;;;5007632;28;20024;-73
2021/10/03 07:06:52;;;;;;;4.53;2.05;;;18.80;99.90;;;;;;4989701;28;20053;-75
2021/10/03 07:09:17;;;;;;;1.95;1.52;;;18.80;99.90;;;;;;5006885;28;20057;-75
2021/10/03 07:11:43;;;;;;;2.47;1.60;;;18.90;99.90;;;;;;5006492;28;20096;-75
2021/10/03 07:14:09;;;;;;;2.72;1.45;;;18.80;99.90;;;;;;5006441;28;20034;-74
2021/10/03 07:16:35;;;;;;;8.35;1.92;;;18.90;99.90;;;;;;5006722;28;20029;-73
2021/10/03 07:19:00;;;;;;;9.50;1.88;;;18.90;99.90;;;;;;5005824;28;20029;-74
2021/10/03 07:21:26;;;;;;;4.85;2.05;;;19.00;99.90;;;;;;4989141;28;20018;-71
2021/10/03 07:23:51;;;;;;;3.70;1.80;;;19.00;99.90;;;;;;5006834;28;20026;-71
2021/10/03 07:26:17;;;;;;;3.45;1.80;;;19.10;99.90;;;;;;5005382;28;20034;-72
2021/10/03 07:28:43;;;;;;;7.35;2.13;;;19.10;99.90;;;;;;5005833;28;20038;-73
2021/10/03 07:31:09;;;;;;;2.83;1.77;;;19.10;99.90;;;;;;4986762;28;20027;-74
2021/10/03 07:33:35;;;;;;;2.75;1.83;;;19.10;99.90;;;;;;4994389;28;20121;-73
2021/10/03 07:36:00;;;;;;;4.70;1.85;;;19.00;99.90;;;;;;5006537;28;20478;-73
2021/10/03 07:38:26;;;;;;;5.57;1.63;;;19.10;99.90;;;;;;5006638;28;20082;-75
2021/10/03 07:40:52;;;;;;;11.98;2.72;;;19.10;99.90;;;;;;5005943;28;20026;-74
2021/10/03 07:43:17;;;;;;;2.85;1.77;;;19.10;99.90;;;;;;5006268;28;20034;-72
2021/10/03 07:45:43;;;;;;;6.22;2.33;;;19.10;99.90;;;;;;5006134;28;20050;-72
2021/10/03 07:48:08;;;;;;;5.68;2.63;;;19.10;99.90;;;;;;5005852;28;20041;-72
2021/10/03 07:50:34;;;;;;;8.18;3.08;;;19.20;99.90;;;;;;5000885;28;20046;-74
2021/10/03 07:53:00;;;;;;;3.17;2.10;;;19.10;99.90;;;;;;4994585;28;20086;-73
2021/10/03 07:55:28;;;;;;;5.13;2.28;;;19.20;99.90;;;;;;4985539;28;20035;-73
2021/10/03 07:58:08;;;;;;;9.00;2.35;;;19.20;99.90;;;;;;4992837;28;20024;-73
2021/10/03 08:00:35;;;;;;;3.95;1.95;;;19.20;99.90;;;;;;5003609;28;20088;-71
2021/10/03 08:03:02;;;;;;;5.95;2.40;;;19.20;99.90;;;;;;5004937;28;20030;-72
2021/10/03 08:05:29;;;;;;;5.60;2.15;;;19.10;99.90;;;;;;5004061;28;20030;-72
2021/10/03 08:07:58;;;;;;;6.57;2.03;;;19.10;99.90;;;;;;5005665;28;20022;-72
2021/10/03 08:10:24;;;;;;;3.45;1.95;;;19.10;99.90;;;;;;5005735;28;20034;-72
2021/10/03 08:12:50;;;;;;;5.05;2.22;;;19.10;99.90;;;;;;4991648;28;20037;-72
2021/10/03 08:15:15;;;;;;;7.18;2.38;;;19.00;99.90;;;;;;4977955;28;20038;-75
2021/10/03 08:17:41;;;;;;;9.40;2.78;;;19.10;99.90;;;;;;4968296;28;20035;-71
2021/10/03 08:20:08;;;;;;;10.55;2.13;;;19.10;99.90;;;;;;4967343;28;20499;-71
2021/10/03 08:22:33;;;;;;;3.47;2.45;;;19.10;99.90;;;;;;4990389;28;20035;-73
2021/10/03 08:24:59;;;;;;;2.75;1.67;;;19.10;99.90;;;;;;5001199;28;20032;-73
2021/10/03 08:27:26;;;;;;;5.28;2.28;;;18.90;99.90;;;;;;5004892;28;20033;-75
2021/10/03 08:29:53;;;;;;;6.25;2.33;;;18.80;99.90;;;;;;5003936;28;20022;-72
2021/10/03 08:32:21;;;;;;;6.15;3.05;;;18.70;99.90;;;;;;5003691;28;20378;-75
2021/10/03 08:34:47;;;;;;;3.80;2.30;;;18.60;99.90;;;;;;4996656;28;20045;-72
2021/10/03 08:37:12;;;;;;;5.30;2.92;;;18.50;99.90;;;;;;4985901;28;20015;-73
2021/10/03 08:39:42;;;;;;;4.30;2.30;;;18.40;99.90;;;;;;5005168;28;20026;-73
2021/10/03 08:42:11;;;;;;;10.93;2.35;;;18.40;99.90;;;;;;5004873;28;20029;-73
2021/10/03 08:44:37;;;;;;;4.35;2.40;;;18.40;99.90;;;;;;5004612;28;20027;-72
2021/10/03 08:47:05;;;;;;;5.70;2.45;;;18.40;99.90;;;;;;5001053;28;20051;-72
2021/10/03 08:49:31;;;;;;;6.38;2.20;;;18.40;99.90;;;;;;4996233;28;20046;-73
2021/10/03 08:51:58;;;;;;;3.90;2.53;;;18.40;99.90;;;;;;5003152;28;20570;-72
2021/10/03 08:54:25;;;;;;;4.53;2.42;;;18.40;99.90;;;;;;4998115;28;20034;-75
2021/10/03 08:56:55;;;;;;;5.15;2.65;;;18.40;99.90;;;;;;4983230;28;20038;-74
2021/10/03 08:59:21;;;;;;;4.20;2.90;;;18.30;99.90;;;;;;5001991;28;20066;-72
2021/10/03 09:01:55;;;;;;;6.57;2.72;;;18.30;99.90;;;;;;5005611;28;20026;-74
2021/10/03 09:04:32;;;;;;;;;;;18.10;99.90;;;;;;5005375;28;20030;-73
2021/10/03 09:07:13;;;;;;;3.97;2.35;;;18.00;99.90;;;;;;5005513;28;19906;-73
2021/10/03 09:10:00;;;;;;;6.57;3.05;;;17.90;99.90;;;;;;5004855;28;20031;-74
2021/10/03 09:12:31;;;;;;;7.60;3.55;;;17.90;99.90;;;;;;5005119;28;20038;-75
2021/10/03 09:14:59;;;;;;;6.28;3.15;;;17.80;99.90;;;;;;5000549;28;20022;-71
2021/10/03 09:17:28;;;;;;;6.47;3.20;;;17.80;99.90;;;;;;5001370;28;20034;-74
2021/10/03 09:20:13;;;;;;;5.70;3.20;;;17.70;99.90;;;;;;4996724;28;20038;-73
2021/10/03 09:22:58;;;;;;;5.93;2.92;;;17.60;99.90;;;;;;5004257;28;20026;-73
2021/10/03 09:25:44;;;;;;;5.07;2.88;;;17.70;99.90;;;;;;5004157;28;20030;-74
2021/10/03 09:28:12;;;;;;;5.90;3.15;;;17.60;99.90;;;;;;4996606;28;20099;-74
2021/10/03 09:31:08;;;;;;;4.53;2.67;;;17.70;99.90;;;;;;5004628;28;20038;-73
2021/10/03 09:33:54;;;;;;;9.75;3.53;;;17.70;99.90;;;;;;5006761;28;20031;-74
2021/10/03 09:36:33;;;;;;;5.13;2.63;;;17.80;99.90;;;;;;5007172;28;20031;-72
2021/10/03 09:39:04;;;;;;;5.22;2.80;;;17.80;99.90;;;;;;5008949;28;20415;-73
2021/10/03 09:41:36;;;;;;;5.18;2.60;;;17.90;99.90;;;;;;5008060;28;20030;-73
2021/10/03 09:44:10;;;;;;;5.15;2.45;;;17.90;99.90;;;;;;5007217;28;20061;-73
2021/10/03 09:46:40;;;;;;;6.35;3.08;;;18.00;99.90;;;;;;5007598;28;20146;-72
2021/10/03 09:49:26;;;;;;;5.40;2.60;;;18.10;99.90;;;;;;5006995;28;20038;-73
2021/10/03 09:51:56;;;;;;;5.57;2.47;;;18.10;99.90;;;;;;4988892;28;20074;-73
2021/10/03 09:54:31;;;;;;;6.03;2.85;;;18.10;99.90;;;;;;5008069;28;20118;-75
2021/10/03 09:56:57;;;;;;;5.05;2.60;;;18.10;99.90;;;;;;5007935;28;20050;-73
2021/10/03 09:59:25;;;;;;;6.95;2.70;;;18.10;99.90;;;;;;5007552;28;20026;-73
2021/10/03 10:01:57;;;;;;;5.53;2.65;;;18.10;99.90;;;;;;4988387;28;20034;-73
2021/10/03 10:04:23;;;;;;;7.00;2.58;;;18.10;99.90;;;;;;4997685;28;20031;-75
2021/10/03 10:06:49;;;;;;;4.88;2.25;;;18.10;99.90;;;;;;5007268;28;20121;-74
2021/10/03 10:09:20;;;;;;;7.65;3.00;;;18.10;99.90;;;;;;5007461;28;20030;-72
2021/10/03 10:11:53;;;;;;;5.90;2.72;;;18.10;99.90;;;;;;5007879;28;20133;-72
2021/10/03 10:14:36;;;;;;;4.75;2.70;;;18.20;99.90;;;;;;5008348;28;20117;-74
2021/10/03 10:17:35;;;;;;;4.50;2.38;;;18.20;99.90;;;;;;5003877;28;20073;-73
2021/10/03 10:20:27;;;;;;;7.45;2.85;;;18.20;99.90;;;;;;5003386;28;20038;-72
2021/10/03 10:23:06;;;;;;;9.48;3.22;;;18.30;99.90;;;;;;5006691;28;20030;-74
2021/10/03 10:25:49;;;;;;;7.95;2.70;;;18.20;99.90;;;;;;5007644;28;20034;-73
2021/10/03 10:28:28;;;;;;;5.30;2.63;;;18.20;99.90;;;;;;5007670;28;20014;-73
2021/10/03 10:31:11;;;;;;;6.65;2.67;;;18.20;99.90;;;;;;5006964;28;20038;-73
2021/10/03 10:33:53;;;;;;;4.45;2.22;;;18.20;99.90;;;;;;5007427;28;20022;-74
2021/10/03 10:36:34;;;;;;;4.65;2.28;;;18.20;99.90;;;;;;4990028;28;20041;-71
2021/10/03 10:39:08;;;;;;;4.65;2.50;;;18.20;99.90;;;;;;5006577;28;20030;-73
2021/10/03 10:41:36;;;;;;;14.82;2.97;;;18.20;99.90;;;;;;5007341;28;20078;-74
2021/10/03 10:44:29;;;;;;;4.55;2.55;;;18.20;99.90;;;;;;5006443;28;20033;-74
2021/10/03 10:47:07;;;;;;;6.53;2.60;;;18.20;99.90;;;;;;5007238;28;20121;-73
2021/10/03 10:49:38;;;;;;;4.65;2.67;;;18.30;99.90;;;;;;5007120;28;20018;-74
2021/10/03 10:52:19;;;;;;;3.78;2.33;;;18.30;99.90;;;;;;5007027;28;20038;-72
2021/10/03 10:55:04;;;;;;;4.45;2.15;;;18.30;99.90;;;;;;5006606;28;20400;-74
2021/10/03 10:57:53;;;;;;;8.23;2.70;;;18.40;99.90;;;;;;5005473;28;20030;-74
2021/10/03 11:00:25;;;;;;;3.50;1.80;;;18.50;99.90;;;;;;5006622;28;20030;-74
2021/10/03 11:02:56;;;;;;;5.40;2.15;;;18.60;99.90;;;;;;5006691;28;20035;-75
2021/10/03 11:05:36;;;;;;;6.43;2.78;;;18.60;99.90;;;;;;4988571;28;20537;-73
2021/10/03 11:08:08;;;;;;;5.50;2.53;;;18.60;99.90;;;;;;4989904;28;20038;-73
2021/10/03 11:11:02;;;;;;;4.72;2.13;;;18.60;99.90;;;;;;5006667;28;20049;-75
2021/10/03 11:13:45;;;;;;;4.85;1.90;;;18.70;99.90;;;;;;5007117;28;20026;-75
2021/10/03 11:16:34;;;;;;;3.00;2.00;;;18.60;99.90;;;;;;5006457;28;20077;-76
2021/10/03 11:19:10;;;;;;;5.68;1.67;;;18.60;99.90;;;;;;5006628;28;20486;-73
2021/10/03 11:21:39;;;;;;;3.70;2.05;;;18.60;99.90;;;;;;5006711;28;20034;-76
2021/10/03 11:24:10;;;;;;;4.53;2.17;;;18.70;99.90;;;;;;4987529;28;20065;-72
2021/10/03 11:26:56;;;;;;;6.22;2.58;;;18.80;99.90;;;;;;5006170;28;20022;-74
2021/10/03 11:29:29;;;;;;;4.10;2.22;;;18.80;99.90;;;;;;5005838;28;20034;-73
2021/10/03 11:31:58;;;;;;;3.83;2.07;;;18.90;99.90;;;;;;5006465;28;20034;-73
2021/10/03 11:34:52;;;;;;;3.03;1.58;;;18.90;99.90;;;;;;5004610;28;20034;-72
2021/10/03 11:37:46;;;;;;;3.45;2.13;;;19.00;99.90;;;;;;5005499;28;20383;-73
2021/10/03 11:40:17;;;;;;;3.17;1.67;;;19.00;99.90;;;;;;4988588;28;20437;-74
2021/10/03 11:42:46;;;;;;;3.30;1.65;;;19.00;99.90;;;;;;5006041;28;20035;-75
2021/10/03 11:45:27;;;;;;;6.40;2.05;;;19.00;99.90;;;;;;4988000;28;20022;-73
2021/10/03 11:47:56;;;;;;;5.63;1.92;;;19.10;99.90;;;;;;5006061;28;20026;-75
2021/10/03 11:50:30;;;;;;;2.85;1.60;;;19.10;99.90;;;;;;5006431;28;20041;-74
2021/10/03 11:53:10;;;;;;;6.18;2.22;;;19.10;99.90;;;;;;5006233;28;20029;-75
2021/10/03 11:55:38;;;;;;;5.43;1.90;;;19.20;99.90;;;;;;4987699;28;20034;-75
2021/10/03 11:58:12;;;;;;;5.60;2.28;;;19.30;99.90;;;;;;4988068;28;20371;-76
2021/10/03 12:00:51;;;;;;;2.55;1.55;;;19.40;99.90;;;;;;4987828;28;20031;-75
2021/10/03 12:03:17;;;;;;;5.28;2.10;;;19.30;99.90;;;;;;5005343;28;20025;-73
2021/10/03 12:05:44;;;;;;;3.85;2.10;;;19.40;99.90;;;;;;5005559;28;20053;-74
2021/10/03 12:08:14;;;;;;;7.97;2.20;;;19.40;99.90;;;;;;5005721;28;20057;-73
2021/10/03 12:10:47;;;;;;;4.40;2.47;;;19.50;99.90;;;;;;5001202;28;20210;-75
2021/10/03 12:13:22;;;;;;;2.80;1.60;;;19.60;99.90;;;;;;4994346;28;20099;-73
2021/10/03 12:16:13;;;;;;;5.97;2.38;;;19.70;99.90;;;;;;4968322;28;20033;-73
2021/10/03 12:18:48;;;;;;;13.35;2.20;;;19.90;99.90;;;;;;4989022;28;20018;-73
2021/10/03 12:21:14;;;;;;;;;;;19.90;99.90;;;;;;4994420;28;20092;-74
2021/10/03 12:24:00;;;;;;;3.90;1.75;;;20.00;99.90;;;;;;4990987;28;19918;-75
2021/10/03 12:26:26;;;;;;;2.03;1.20;;;20.00;99.90;;;;;;5005348;28;20022;-74
2021/10/03 12:28:58;;;;;;;4.55;1.92;;;20.10;99.90;;;;;;5004806;28;20459;-74
2021/10/03 12:32:03;;;;;;;5.97;3.00;;;20.10;99.90;;;;;;5001609;28;20089;-73
2021/10/03 12:34:43;;;;;;;1.70;1.50;;;20.10;99.90;;;;;;4986408;28;20038;-74
2021/10/03 12:37:14;;;;;;;3.08;1.92;;;20.10;99.90;;;;;;4987435;28;20031;-73
2021/10/03 12:39:51;;;;;;;5.40;2.28;;;20.10;99.90;;;;;;4987660;28;20026;-73
2021/10/03 12:42:23;;;;;;;2.53;1.52;;;20.10;99.90;;;;;;5004340;28;20422;-75
2021/10/03 12:44:55;;;;;;;4.80;1.65;;;20.10;99.90;;;;;;4986636;28;20081;-73
2021/10/03 12:47:24;;;;;;;7.13;2.00;;;20.10;99.90;;;;;;5004620;28;20070;-73
2021/10/03 12:49:50;;;;;;;3.83;2.05;;;20.10;99.90;;;;;;5005567;28;20085;-72
2021/10/03 12:52:19;;;;;;;5.28;2.17;;;20.00;99.90;;;;;;4987431;28;20501;-74
2021/10/03 12:54:45;;;;;;;6.72;1.85;;;20.00;99.90;;;;;;5005110;28;20049;-75
2021/10/03 12:57:12;;;;;;;3.05;1.83;;;20.00;99.90;;;;;;5005219;28;20030;-73
2021/10/03 12:59:39;;;;;;;9.23;2.17;;;19.90;99.90;;;;;;5005533;28;20029;-75